createdAt,value
2019-04-30T00:02:34.391Z,71.05
2019-04-30T00:05:00.733Z,70.94
2019-04-30T00:07:32.537Z,70.67
2019-04-30T00:10:06.118Z,70.56
2019-04-30T00:12:39.662Z,69.84
2019-04-30T00:15:16.209Z,69.74
2019-04-30T00:17:45.997Z,69.63
2019-04-30T00:20:18.720Z,70.01
2019-04-30T00:22:50.869Z,70.64
2019-04-30T00:25:24.947Z,70.92
2019-04-30T00:28:00.244Z,70.96
2019-04-30T00:30:35.085Z,71.10
2019-04-30T00:33:08.163Z,71.13
2019-04-30T00:35:40.327Z,70.94
2019-04-30T00:38:15.132Z,70.86
2019-04-30T00:40:46.938Z,71.21
2019-04-30T00:43:18.791Z,71.43
2019-04-30T00:45:50.553Z,71.40
2019-04-30T00:48:27.994Z,71.41
2019-04-30T00:50:55.922Z,71.27
2019-04-30T00:53:27.824Z,71.44
2019-04-30T00:55:59.591Z,71.38
2019-04-30T00:58:32.004Z,71.48
2019-04-30T01:01:22.434Z,71.54
2019-04-30T01:04:00.055Z,71.17
2019-04-30T01:06:31.841Z,70.78
2019-04-30T01:09:05.418Z,70.52
2019-04-30T01:11:39.742Z,70.90
2019-04-30T01:14:13.368Z,71.40
2019-04-30T01:16:46.854Z,71.68
2019-04-30T01:19:29.170Z,71.85
2019-04-30T01:21:56.001Z,72.39
2019-04-30T01:24:31.435Z,72.40
2019-04-30T01:27:06.951Z,71.08
2019-04-30T01:29:40.753Z,70.92
2019-04-30T01:32:10.455Z,70.41
2019-04-30T01:34:44.233Z,70.90
2019-04-30T01:37:20.262Z,70.75
2019-04-30T01:39:50.607Z,70.83
2019-04-30T01:42:22.564Z,71.21
2019-04-30T01:44:55.966Z,72.08
2019-04-30T01:47:29.518Z,72.73
2019-04-30T01:50:04.876Z,72.24
2019-04-30T01:52:53.297Z,72.46
2019-04-30T01:55:50.076Z,71.39
2019-04-30T01:58:33.151Z,70.70
2019-04-30T02:01:09.110Z,70.59
2019-04-30T02:03:41.256Z,71.05
2019-04-30T02:06:13.141Z,71.20
2019-04-30T02:08:44.984Z,71.19
2019-04-30T02:11:19.095Z,70.60
2019-04-30T02:13:51.747Z,69.52
2019-04-30T02:16:23.482Z,69.58
2019-04-30T02:18:55.322Z,69.14
2019-04-30T02:21:29.924Z,69.68
2019-04-30T02:24:01.562Z,69.68
2019-04-30T02:26:33.713Z,69.36
2019-04-30T02:29:05.551Z,69.29
2019-04-30T02:31:37.330Z,68.91
2019-04-30T02:34:21.783Z,69.68
2019-04-30T02:36:59.844Z,69.38
2019-04-30T02:39:31.645Z,69.56
2019-04-30T02:42:03.746Z,69.35
2019-04-30T02:44:35.674Z,68.60
2019-04-30T02:47:10.475Z,68.82
2019-04-30T02:49:42.439Z,68.80
2019-04-30T02:52:15.898Z,68.91
2019-04-30T02:54:49.992Z,68.92
2019-04-30T02:57:23.699Z,69.16
2019-04-30T03:00:12.928Z,69.46
2019-04-30T03:02:46.331Z,69.82
2019-04-30T03:05:20.307Z,69.73
2019-04-30T03:07:53.536Z,70.15
2019-04-30T03:10:25.234Z,70.32
2019-04-30T03:13:00.173Z,71.42
2019-04-30T03:15:33.079Z,71.37
2019-04-30T03:18:25.075Z,71.37
2019-04-30T03:21:09.637Z,71.65
2019-04-30T03:23:40.999Z,74.82
2019-04-30T03:26:13.139Z,75.31
2019-04-30T03:28:44.942Z,75.33
2019-04-30T03:31:22.477Z,75.76
2019-04-30T03:33:52.736Z,75.01
2019-04-30T03:36:24.497Z,73.98
2019-04-30T03:38:56.298Z,73.92
2019-04-30T03:41:33.101Z,74.67
2019-04-30T03:44:17.274Z,74.86
2019-04-30T03:46:39.804Z,74.07
2019-04-30T03:49:13.405Z,73.82
2019-04-30T03:51:46.817Z,73.64
2019-04-30T03:54:19.519Z,73.36
2019-04-30T03:56:53.023Z,73.23
2019-04-30T03:59:24.890Z,73.97
2019-04-30T04:02:12.941Z,74.01
2019-04-30T04:04:52.812Z,73.65
2019-04-30T04:07:43.706Z,73.16
2019-04-30T04:10:34.292Z,73.13
2019-04-30T04:13:10.207Z,73.03
2019-04-30T04:15:42.007Z,73.33
2019-04-30T04:18:13.834Z,73.19
2019-04-30T04:20:45.974Z,72.87
2019-04-30T04:23:19.308Z,72.25
2019-04-30T04:25:51.395Z,72.64
2019-04-30T04:28:23.210Z,73.00
2019-04-30T04:30:55.404Z,74.58
2019-04-30T04:33:29.453Z,75.53
2019-04-30T04:36:01.906Z,75.90
2019-04-30T04:38:33.677Z,75.19
2019-04-30T04:41:05.422Z,75.53
2019-04-30T04:43:43.195Z,75.87
2019-04-30T04:46:15.397Z,76.33
2019-04-30T04:48:50.314Z,76.47
2019-04-30T04:51:36.804Z,76.85
2019-04-30T04:53:55.917Z,76.95
2019-04-30T04:56:30.246Z,77.12
2019-04-30T04:59:01.189Z,77.11
2019-04-30T05:01:35.680Z,77.08
2019-04-30T05:04:11.503Z,77.68
2019-04-30T05:06:41.536Z,77.41
2019-04-30T05:09:13.295Z,76.84
2019-04-30T05:11:45.031Z,76.20
2019-04-30T05:14:18.971Z,76.26
2019-04-30T05:16:55.285Z,75.63
2019-04-30T05:19:28.663Z,75.34
2019-04-30T05:22:01.077Z,75.05
2019-04-30T05:24:33.059Z,75.03
2019-04-30T05:27:04.877Z,75.07
2019-04-30T05:29:38.605Z,74.89
2019-04-30T05:32:10.330Z,74.52
2019-04-30T05:34:42.091Z,75.30
2019-04-30T05:37:14.220Z,75.07
2019-04-30T05:39:45.968Z,75.18
2019-04-30T05:42:18.497Z,74.97
2019-04-30T05:44:50.524Z,74.92
2019-04-30T05:47:22.388Z,74.69
2019-04-30T05:49:54.259Z,74.56
2019-04-30T05:52:29.519Z,74.34
2019-04-30T05:55:01.478Z,75.29
2019-04-30T05:57:33.259Z,75.62
2019-04-30T06:00:06.346Z,75.82
2019-04-30T06:02:39.925Z,75.75
2019-04-30T06:05:11.692Z,76.33
2019-04-30T06:07:43.611Z,76.54
2019-04-30T06:10:26.364Z,76.17
2019-04-30T06:13:09.083Z,76.47
2019-04-30T06:15:51.399Z,76.30
2019-04-30T06:18:23.152Z,76.18
2019-04-30T06:20:55.974Z,75.94
2019-04-30T06:23:29.379Z,75.65
2019-04-30T06:26:09.409Z,75.32
2019-04-30T06:28:36.657Z,75.04
2019-04-30T06:31:09.096Z,74.79
2019-04-30T06:33:41.554Z,74.29
2019-04-30T06:36:13.368Z,73.30
2019-04-30T06:38:45.599Z,73.03
2019-04-30T06:41:17.489Z,72.76
2019-04-30T06:43:49.289Z,72.70
2019-04-30T06:46:21.038Z,73.74
2019-04-30T06:48:54.982Z,74.53
2019-04-30T06:51:30.583Z,75.10
2019-04-30T06:54:00.530Z,75.47
2019-04-30T06:56:32.341Z,75.78
2019-04-30T06:59:04.239Z,75.76
2019-04-30T07:01:36.074Z,75.18
2019-04-30T07:04:07.832Z,74.53
2019-04-30T07:06:44.015Z,74.48
2019-04-30T07:09:43.610Z,74.27
2019-04-30T07:12:27.154Z,74.80
2019-04-30T07:14:52.253Z,75.74
2019-04-30T07:17:24.010Z,76.16
2019-04-30T07:20:01.301Z,75.83
2019-04-30T07:25:09.853Z,75.33
2019-04-30T07:27:42.946Z,75.39
2019-04-30T07:30:14.753Z,75.04
2019-04-30T07:32:48.230Z,74.48
2019-04-30T07:35:19.993Z,73.95
2019-04-30T07:37:54.686Z,73.81
2019-04-30T07:40:29.012Z,73.44
2019-04-30T07:43:00.350Z,72.91
2019-04-30T07:45:32.373Z,72.00
2019-04-30T07:48:04.429Z,71.98
2019-04-30T07:50:36.745Z,71.36
2019-04-30T07:53:11.205Z,70.94
2019-04-30T07:55:42.357Z,71.01
2019-04-30T07:58:14.121Z,70.16
2019-04-30T08:00:50.345Z,69.48
2019-04-30T08:03:40.349Z,69.43
2019-04-30T08:06:13.310Z,69.27
2019-04-30T08:08:45.593Z,70.03
2019-04-30T08:09:34.154Z,75.73
2019-04-30T08:11:25.629Z,70.63
2019-04-30T08:13:51.715Z,69.91
2019-04-30T08:16:24.247Z,69.84
2019-04-30T08:18:56.937Z,69.87
2019-04-30T08:21:34.322Z,69.78
2019-04-30T08:24:13.636Z,69.19
2019-04-30T08:26:47.019Z,69.15
2019-04-30T08:29:19.481Z,68.63
2019-04-30T08:31:51.447Z,68.57
2019-04-30T08:34:23.258Z,67.36
2019-04-30T08:36:56.341Z,66.61
2019-04-30T08:39:31.821Z,66.33
2019-04-30T08:42:04.070Z,66.12
2019-04-30T08:44:35.913Z,65.49
2019-04-30T08:47:11.627Z,65.45
2019-04-30T08:49:43.856Z,64.82
2019-04-30T08:52:15.897Z,64.46
2019-04-30T08:54:51.506Z,63.77
2019-04-30T08:57:24.398Z,63.45
2019-04-30T08:59:56.157Z,62.73
2019-04-30T09:02:31.067Z,61.88
2019-04-30T09:05:09.531Z,61.46
2019-04-30T09:07:42.297Z,63.59
2019-04-30T09:10:14.552Z,61.06
2019-04-30T09:12:46.323Z,59.61
2019-04-30T09:15:18.829Z,57.14
2019-04-30T09:18:00.743Z,55.37
2019-04-30T09:20:24.267Z,50.35
2019-04-30T09:22:56.086Z,47.37
2019-04-30T09:25:28.701Z,46.62
2019-04-30T09:28:00.616Z,45.18
2019-04-30T09:30:33.511Z,45.92
2019-04-30T09:33:05.278Z,43.87
2019-04-30T09:35:39.519Z,42.25
2019-04-30T09:38:11.587Z,42.00
2019-04-30T09:40:43.664Z,41.64
2019-04-30T09:43:15.851Z,39.95
2019-04-30T09:45:51.029Z,40.50
2019-04-30T09:48:25.354Z,38.70
2019-04-30T09:51:01.256Z,38.42
2019-04-30T09:53:33.368Z,38.24
2019-04-30T09:56:05.130Z,41.80
2019-04-30T09:58:40.463Z,40.25
2019-04-30T10:01:12.274Z,41.58
2019-04-30T10:03:44.528Z,41.85
2019-04-30T10:06:16.632Z,39.44
2019-04-30T10:08:51.333Z,37.96
2019-04-30T10:11:42.295Z,39.63
2019-04-30T10:14:14.420Z,43.62
2019-04-30T10:17:20.021Z,40.33
2019-04-30T10:19:54.352Z,37.87
2019-04-30T10:22:26.151Z,36.32
2019-04-30T10:24:59.694Z,37.39
2019-04-30T10:27:31.934Z,37.06
2019-04-30T10:30:03.767Z,34.95
2019-04-30T10:32:35.986Z,35.69
2019-04-30T10:35:07.804Z,35.46
2019-04-30T10:37:39.641Z,36.77
2019-04-30T10:40:11.475Z,41.92
2019-04-30T10:42:43.370Z,41.81
2019-04-30T10:45:15.176Z,40.56
2019-04-30T10:47:46.966Z,39.45
2019-04-30T10:50:21.353Z,38.88
2019-04-30T10:52:53.214Z,39.64
2019-04-30T10:55:24.977Z,38.72
2019-04-30T10:57:59.331Z,37.38
2019-04-30T11:00:39.434Z,39.44
2019-04-30T11:03:19.838Z,37.71
2019-04-30T11:05:45.975Z,36.83
2019-04-30T11:08:17.766Z,37.39
2019-04-30T11:10:49.534Z,38.89
2019-04-30T11:13:22.561Z,39.91
2019-04-30T11:15:54.305Z,41.30
2019-04-30T11:18:26.318Z,38.31
2019-04-30T11:20:59.762Z,41.15
2019-04-30T11:23:35.059Z,41.70
2019-04-30T11:26:07.568Z,39.03
2019-04-30T11:28:39.954Z,39.70
2019-04-30T11:31:36.750Z,40.17
2019-04-30T11:34:08.840Z,41.04
2019-04-30T11:36:42.487Z,41.97
2019-04-30T11:39:18.664Z,40.18
2019-04-30T11:41:50.622Z,40.34
2019-04-30T11:44:31.023Z,41.56
2019-04-30T11:47:29.723Z,41.18
2019-04-30T11:51:01.453Z,41.64
2019-04-30T11:53:33.450Z,42.62
2019-04-30T11:56:05.203Z,43.32
2019-04-30T11:58:38.927Z,43.43
2019-04-30T12:01:11.029Z,44.02
2019-04-30T12:03:42.769Z,45.45
2019-04-30T12:06:14.645Z,44.74
2019-04-30T12:09:03.784Z,44.44
2019-04-30T12:11:37.615Z,44.50
2019-04-30T12:14:09.224Z,43.36
2019-04-30T12:16:40.996Z,44.60
2019-04-30T12:19:13.334Z,44.31
2019-04-30T12:21:46.106Z,44.84
2019-04-30T12:24:17.867Z,44.25
2019-04-30T12:26:50.840Z,43.88
2019-04-30T12:29:22.657Z,42.58
2019-04-30T12:31:54.457Z,43.80
2019-04-30T12:34:26.209Z,42.88
2019-04-30T12:36:59.614Z,43.20
2019-04-30T12:39:34.012Z,43.82
2019-04-30T12:42:08.752Z,43.13
2019-04-30T12:44:40.822Z,42.03
2019-04-30T12:47:12.578Z,41.25
2019-04-30T12:50:04.306Z,41.30
2019-04-30T12:52:40.840Z,39.73
2019-04-30T12:55:33.123Z,39.76
2019-04-30T12:58:06.065Z,40.17
2019-04-30T13:00:39.238Z,39.97
2019-04-30T13:03:11.122Z,39.52
2019-04-30T13:05:43.156Z,40.18
2019-04-30T13:08:16.164Z,40.76
2019-04-30T13:10:51.429Z,39.11
2019-04-30T13:13:26.260Z,39.52
2019-04-30T13:16:00.029Z,39.21
2019-04-30T13:18:33.543Z,39.95
2019-04-30T13:21:05.280Z,37.73
2019-04-30T13:23:38.903Z,38.06
2019-04-30T13:26:10.734Z,37.24
2019-04-30T13:28:55.830Z,36.45
2019-04-30T13:31:29.442Z,37.77
2019-04-30T13:34:25.986Z,38.71
2019-04-30T13:36:59.390Z,38.30
2019-04-30T13:39:50.218Z,37.89
2019-04-30T13:42:20.597Z,36.17
2019-04-30T13:44:52.900Z,37.19
2019-04-30T13:47:25.033Z,36.75
2019-04-30T13:49:56.777Z,36.21
2019-04-30T13:52:28.910Z,35.84
2019-04-30T13:55:03.291Z,37.53
2019-04-30T13:57:35.037Z,36.62
2019-04-30T14:00:08.718Z,37.04
2019-04-30T14:02:47.633Z,36.72
2019-04-30T14:05:19.390Z,37.29
2019-04-30T14:08:13.035Z,38.46
2019-04-30T14:10:45.941Z,38.10
2019-04-30T14:13:17.683Z,38.02
2019-04-30T14:15:49.561Z,37.65
2019-04-30T14:18:28.561Z,37.53
2019-04-30T14:20:54.915Z,37.09
2019-04-30T14:23:28.574Z,37.28
2019-04-30T14:26:01.657Z,39.33
2019-04-30T14:28:33.441Z,39.17
2019-04-30T14:31:05.545Z,38.41
2019-04-30T14:33:37.278Z,38.01
2019-04-30T14:36:09.384Z,38.69
2019-04-30T14:38:41.243Z,40.12
2019-04-30T14:41:14.030Z,40.82
2019-04-30T14:43:52.051Z,40.22
2019-04-30T14:46:43.429Z,41.30
2019-04-30T14:49:33.648Z,40.22
2019-04-30T14:52:06.215Z,38.15
2019-04-30T14:54:58.657Z,39.04
2019-04-30T14:57:51.073Z,37.70
2019-04-30T15:00:40.301Z,37.11
2019-04-30T15:03:14.169Z,36.80
2019-04-30T15:05:49.468Z,38.75
2019-04-30T15:08:19.843Z,39.24
2019-04-30T15:10:51.636Z,38.18
2019-04-30T15:13:23.446Z,38.19
2019-04-30T15:15:55.475Z,38.86
2019-04-30T15:18:29.034Z,37.79
2019-04-30T15:21:00.791Z,38.36
2019-04-30T15:23:58.764Z,38.43
2019-04-30T15:26:25.756Z,38.65
2019-04-30T15:29:00.020Z,38.56
2019-04-30T15:31:32.544Z,38.81
2019-04-30T15:34:12.680Z,40.60
2019-04-30T15:36:44.396Z,39.82
2019-04-30T15:39:36.349Z,41.57
2019-04-30T15:42:09.107Z,40.91
2019-04-30T15:44:45.234Z,39.96
2019-04-30T15:47:14.390Z,40.05
2019-04-30T15:49:46.451Z,40.91
2019-04-30T15:52:18.922Z,41.77
2019-04-30T15:54:51.026Z,41.37
2019-04-30T15:57:22.791Z,41.46
2019-04-30T15:59:54.583Z,41.88
2019-04-30T16:02:57.087Z,42.48
2019-04-30T16:05:32.126Z,42.30
2019-04-30T16:08:25.560Z,42.52
2019-04-30T16:11:14.726Z,43.56
2019-04-30T16:14:18.665Z,44.02
2019-04-30T16:17:15.400Z,43.47
2019-04-30T16:19:47.473Z,44.00
2019-04-30T16:22:20.856Z,43.63
2019-04-30T16:24:54.650Z,43.25
2019-04-30T16:27:26.339Z,42.65
2019-04-30T16:29:59.499Z,43.03
2019-04-30T16:32:31.730Z,42.77
2019-04-30T16:35:03.449Z,42.52
2019-04-30T16:37:35.238Z,42.60
2019-04-30T16:40:08.304Z,41.68
2019-04-30T16:42:40.538Z,40.78
2019-04-30T16:45:14.143Z,40.35
2019-04-30T16:47:45.925Z,39.79
2019-04-30T16:50:18.796Z,39.87
2019-04-30T16:52:52.441Z,40.46
2019-04-30T16:55:24.212Z,40.54
2019-04-30T16:57:56.292Z,40.36
2019-04-30T17:00:29.074Z,40.45
2019-04-30T17:03:06.201Z,40.61
2019-04-30T17:05:45.413Z,41.37
2019-04-30T17:08:40.158Z,41.27
2019-04-30T17:11:33.875Z,41.04
2019-04-30T17:14:07.936Z,40.84
2019-04-30T17:16:40.135Z,41.17
2019-04-30T17:19:13.718Z,41.41
2019-04-30T17:21:46.764Z,42.02
2019-04-30T17:24:19.399Z,41.70
2019-04-30T17:26:51.647Z,41.74
2019-04-30T17:29:23.360Z,41.70
2019-04-30T17:31:55.351Z,41.41
2019-04-30T17:34:29.140Z,40.80
2019-04-30T17:37:00.626Z,41.25
2019-04-30T17:39:34.311Z,40.42
2019-04-30T17:42:06.094Z,40.28
2019-04-30T17:44:53.798Z,39.78
2019-04-30T17:47:15.354Z,39.69
2019-04-30T17:49:48.389Z,39.40
2019-04-30T17:52:22.190Z,39.52
2019-04-30T17:54:56.698Z,39.82
2019-04-30T17:57:33.858Z,39.71
2019-04-30T18:00:02.324Z,39.45
2019-04-30T18:02:39.205Z,39.35
2019-04-30T18:05:13.807Z,40.33
2019-04-30T18:07:45.761Z,40.58
2019-04-30T18:10:19.530Z,40.30
2019-04-30T18:12:51.379Z,40.25
2019-04-30T18:15:23.181Z,40.58
2019-04-30T18:18:12.722Z,39.92
2019-04-30T18:21:21.364Z,39.54
2019-04-30T18:24:24.253Z,39.30
2019-04-30T18:27:14.961Z,40.62
2019-04-30T18:29:47.219Z,41.05
2019-04-30T18:32:20.488Z,41.89
2019-04-30T18:34:52.253Z,42.09
2019-04-30T18:37:24.393Z,42.19
2019-04-30T18:39:56.112Z,42.55
2019-04-30T18:42:29.052Z,42.61
2019-04-30T18:45:01.067Z,43.00
2019-04-30T18:47:34.332Z,43.34
2019-04-30T18:50:06.502Z,44.20
2019-04-30T18:52:40.147Z,44.68
2019-04-30T18:55:11.989Z,44.98
2019-04-30T18:57:55.759Z,45.77
2019-04-30T19:00:21.186Z,45.63
2019-04-30T19:02:52.974Z,45.89
2019-04-30T19:05:29.390Z,45.98
2019-04-30T19:08:06.216Z,46.61
2019-04-30T19:10:58.900Z,47.12
2019-04-30T19:14:01.336Z,47.49
2019-04-30T19:16:53.814Z,48.01
2019-04-30T19:19:47.294Z,48.74
2019-04-30T19:22:19.238Z,49.15
2019-04-30T19:24:57.368Z,49.68
2019-04-30T19:27:24.859Z,50.22
2019-04-30T19:29:56.753Z,50.48
2019-04-30T19:32:30.461Z,51.06
2019-04-30T19:35:02.378Z,50.94
2019-04-30T19:37:38.648Z,51.24
2019-04-30T19:40:11.644Z,51.53
2019-04-30T19:42:43.978Z,51.01
2019-04-30T19:45:15.844Z,51.65
2019-04-30T19:47:48.983Z,51.94
2019-04-30T19:50:21.120Z,52.03
2019-04-30T19:52:53.049Z,52.16
2019-04-30T19:55:24.835Z,52.81
2019-04-30T19:57:59.715Z,53.28
2019-04-30T20:00:31.147Z,53.46
2019-04-30T20:03:03.103Z,53.68
2019-04-30T20:05:35.386Z,54.11
2019-04-30T20:08:10.813Z,54.51
2019-04-30T20:10:41.138Z,54.38
2019-04-30T20:13:13.018Z,55.05
2019-04-30T20:15:44.855Z,55.27
2019-04-30T20:18:19.000Z,55.48
2019-04-30T20:20:52.701Z,55.99
2019-04-30T20:23:26.393Z,56.16
2019-04-30T20:25:58.354Z,56.52
2019-04-30T20:28:38.927Z,56.78
2019-04-30T20:31:04.317Z,56.86
2019-04-30T20:33:36.129Z,57.27
2019-04-30T20:36:09.186Z,57.69
2019-04-30T20:39:18.413Z,58.05
2019-04-30T20:41:52.867Z,58.41
2019-04-30T20:44:24.700Z,58.60
2019-04-30T20:46:56.548Z,59.16
2019-04-30T20:49:29.204Z,59.33
2019-04-30T20:52:03.553Z,59.71
2019-04-30T20:54:38.956Z,60.03
2019-04-30T20:57:10.736Z,59.90
2019-04-30T20:59:42.595Z,60.02
2019-04-30T21:02:18.770Z,60.18
2019-04-30T21:04:52.338Z,61.10
2019-04-30T21:07:24.140Z,61.15
2019-04-30T21:09:58.305Z,61.24
2019-04-30T21:12:30.037Z,61.27
2019-04-30T21:15:01.941Z,61.43
2019-04-30T21:17:34.921Z,61.28
2019-04-30T21:20:09.484Z,61.59
2019-04-30T21:22:42.204Z,61.79
2019-04-30T21:25:14.052Z,61.90
2019-04-30T21:27:45.919Z,62.28
2019-04-30T21:30:17.767Z,62.30
2019-04-30T21:33:11.240Z,62.60
2019-04-30T21:36:08.803Z,62.50
2019-04-30T21:38:41.907Z,62.71
2019-04-30T21:41:19.577Z,63.07
2019-04-30T21:43:51.727Z,63.28
2019-04-30T21:46:25.217Z,63.51
2019-04-30T21:48:58.724Z,63.55
2019-04-30T21:51:30.801Z,63.80
2019-04-30T21:54:02.831Z,64.06
2019-04-30T21:56:37.583Z,64.32
2019-04-30T21:59:23.541Z,64.52
2019-04-30T22:01:44.522Z,64.54
2019-04-30T22:04:16.493Z,64.53
2019-04-30T22:06:49.475Z,64.77
2019-04-30T22:09:21.719Z,65.22
2019-04-30T22:11:53.548Z,65.10
2019-04-30T22:14:25.449Z,65.44
2019-04-30T22:16:59.548Z,65.12
2019-04-30T22:19:31.319Z,65.93
2019-04-30T22:22:03.182Z,65.88
2019-04-30T22:24:35.089Z,66.06
2019-04-30T22:27:06.991Z,66.39
2019-04-30T22:29:42.320Z,66.57
2019-04-30T22:32:14.230Z,66.52
2019-04-30T22:34:46.025Z,66.53
2019-04-30T22:37:19.619Z,66.50
2019-04-30T22:40:02.887Z,66.42
2019-04-30T22:42:36.912Z,66.63
2019-04-30T22:45:30.627Z,66.82
2019-04-30T22:48:02.970Z,66.95
2019-04-30T22:50:35.213Z,66.92
2019-04-30T22:53:07.091Z,67.23
2019-04-30T22:55:38.872Z,67.22
2019-04-30T22:58:12.118Z,67.25
2019-04-30T23:00:46.008Z,67.25
2019-04-30T23:03:24.265Z,67.25
2019-04-30T23:05:56.163Z,67.16
2019-04-30T23:08:28.110Z,67.21
2019-04-30T23:11:00.410Z,67.42
2019-04-30T23:13:32.194Z,67.51
2019-04-30T23:16:04.115Z,68.28
2019-04-30T23:18:38.982Z,68.30
2019-04-30T23:21:11.983Z,68.22
2019-04-30T23:23:43.839Z,68.06
2019-04-30T23:26:15.676Z,68.24
2019-04-30T23:28:49.163Z,68.65
2019-04-30T23:31:21.496Z,68.33
2019-04-30T23:33:53.474Z,68.25
2019-04-30T23:36:25.243Z,68.81
2019-04-30T23:38:59.396Z,69.04
2019-04-30T23:41:33.709Z,68.87
2019-04-30T23:44:06.466Z,68.84
2019-04-30T23:46:39.791Z,68.96
2019-04-30T23:49:11.834Z,68.84
2019-04-30T23:51:43.667Z,69.00
2019-04-30T23:54:15.979Z,69.02
2019-04-30T23:56:47.803Z,68.99
2019-04-30T23:59:19.662Z,68.76
